createdAt,value
2023-02-09T06:41:02.448Z,42.10
2023-02-09T06:43:32.616Z,42.50
2023-02-09T06:46:08.711Z,52.50
2023-02-09T06:48:38.860Z,48.40
2023-02-09T06:51:12.484Z,49.10
2023-02-09T06:53:41.029Z,47.90
2023-02-09T06:56:10.351Z,66.70
2023-02-09T06:58:42.632Z,76.70
2023-02-09T07:01:13.443Z,65.30
2023-02-09T07:03:45.126Z,69.80
2023-02-09T07:06:15.386Z,67.10
2023-02-09T07:08:47.218Z,60.80
2023-02-09T07:11:16.686Z,69.00
2023-02-09T07:13:46.702Z,76.80
2023-02-09T07:16:15.409Z,70.30
2023-02-09T07:18:47.018Z,64.20
2023-02-09T07:21:20.174Z,66.40
2023-02-09T07:23:49.522Z,63.80
2023-02-09T07:26:18.653Z,74.10
2023-02-09T07:28:47.291Z,60.00
2023-02-09T07:31:16.678Z,73.00
2023-02-09T07:33:48.456Z,71.30
2023-02-09T07:36:16.927Z,72.60
2023-02-09T07:38:45.369Z,74.40
2023-02-09T07:41:21.500Z,73.10
2023-02-09T07:43:51.080Z,68.50
2023-02-09T07:46:42.023Z,69.70
2023-02-09T07:49:11.368Z,72.00
2023-02-09T07:51:39.717Z,83.40
2023-02-09T07:54:10.526Z,99.00
2023-02-09T07:56:39.183Z,116.10
2023-02-09T07:59:09.365Z,125.60
2023-02-09T08:01:37.623Z,93.60
2023-02-09T08:04:06.479Z,84.20
2023-02-09T08:06:43.149Z,78.40
2023-02-09T08:09:30.039Z,66.90
2023-02-09T08:12:05.731Z,60.00
2023-02-09T08:14:40.035Z,57.80
2023-02-09T08:17:20.336Z,59.30
2023-02-09T08:20:00.639Z,61.60
2023-02-09T08:22:34.628Z,61.40
2023-02-09T08:25:06.472Z,67.50
2023-02-09T08:27:56.590Z,69.80
2023-02-09T08:30:25.603Z,60.20
2023-02-09T08:32:55.588Z,60.30
2023-02-09T08:35:24.174Z,49.90
2023-02-09T08:37:53.971Z,44.20
2023-02-09T08:40:22.299Z,39.60
2023-02-09T08:42:50.851Z,38.40
2023-02-09T08:45:19.596Z,38.40
2023-02-09T08:47:49.092Z,36.50
2023-02-09T08:50:18.204Z,36.10
2023-02-09T08:52:48.250Z,36.70
2023-02-09T08:55:16.548Z,36.00
2023-02-09T08:57:45.534Z,33.10
2023-02-09T09:00:20.298Z,25.20
2023-02-09T09:02:48.655Z,24.20
2023-02-09T09:05:35.522Z,24.70
2023-02-09T09:08:06.561Z,29.70
2023-02-09T09:10:54.014Z,29.30
2023-02-09T09:13:24.617Z,33.00
2023-02-09T09:15:54.451Z,26.20
2023-02-09T09:21:12.723Z,36.70
2023-02-09T09:23:41.090Z,31.70
2023-02-09T09:26:09.568Z,34.30
2023-02-09T09:28:37.983Z,33.50
2023-02-09T09:31:33.721Z,34.70
2023-02-09T09:34:04.159Z,32.60
2023-02-09T09:36:33.076Z,35.50
2023-02-09T09:39:25.860Z,34.50
2023-02-09T09:44:44.230Z,34.10
2023-02-09T09:47:21.030Z,31.10
2023-02-09T09:52:38.958Z,29.00
2023-02-09T09:55:08.355Z,22.20
2023-02-09T09:57:38.866Z,25.40
2023-02-09T10:00:19.712Z,21.00
2023-02-09T10:05:26.521Z,22.80
2023-02-09T10:08:11.037Z,21.00
2023-02-09T10:11:06.376Z,13.30
2023-02-09T10:13:56.875Z,14.00
2023-02-09T10:16:30.955Z,11.60
2023-02-09T10:19:04.288Z,14.50
2023-02-09T10:21:34.912Z,8.90
2023-02-09T10:24:15.036Z,10.50
2023-02-09T10:26:44.413Z,12.60
2023-02-09T10:29:13.017Z,11.60
2023-02-09T10:31:48.962Z,12.10
2023-02-09T10:34:19.540Z,10.10
2023-02-09T10:36:56.611Z,8.90
2023-02-09T10:39:34.447Z,8.10
2023-02-09T10:42:19.596Z,6.10
2023-02-09T10:44:50.144Z,14.90
2023-02-09T10:47:21.333Z,11.90
2023-02-09T10:50:11.413Z,6.00
2023-02-09T10:53:03.372Z,6.10
2023-02-09T10:55:52.005Z,6.00
2023-02-09T10:58:25.070Z,15.40
2023-02-09T11:01:08.946Z,8.10
2023-02-09T11:03:39.156Z,11.80
2023-02-09T11:06:18.842Z,8.50
2023-02-09T11:09:06.155Z,10.30
2023-02-09T11:14:45.484Z,11.40
2023-02-09T11:17:27.303Z,8.90
2023-02-09T11:20:10.138Z,8.60
2023-02-09T11:22:57.237Z,10.00
2023-02-09T11:25:48.609Z,7.40
2023-02-09T11:28:45.386Z,12.00
2023-02-09T11:31:36.437Z,5.40
2023-02-09T11:34:42.634Z,7.00
2023-02-09T11:37:30.394Z,7.10
2023-02-09T11:40:18.795Z,7.60
2023-02-09T11:43:15.596Z,12.60
2023-02-09T11:45:58.835Z,10.10
2023-02-09T11:48:39.375Z,12.30
2023-02-09T11:51:20.091Z,8.80
2023-02-09T11:53:49.510Z,11.30
2023-02-09T11:56:20.202Z,8.00
2023-02-09T12:01:52.514Z,7.40
2023-02-09T12:04:26.993Z,7.80
2023-02-09T12:07:21.622Z,8.10
2023-02-09T12:10:00.409Z,8.60
2023-02-09T12:12:28.792Z,9.70
2023-02-09T12:15:34.840Z,8.40
2023-02-09T12:18:13.536Z,9.10
2023-02-09T12:20:54.470Z,16.50
2023-02-09T12:23:53.575Z,11.00
2023-02-09T12:26:41.337Z,9.80
2023-02-09T12:29:39.104Z,9.00
2023-02-09T12:32:08.148Z,8.50
2023-02-09T12:34:41.314Z,7.50
2023-02-09T12:37:18.199Z,8.10
2023-02-09T12:40:18.509Z,10.00
2023-02-09T12:42:56.155Z,9.60
2023-02-09T12:45:36.311Z,10.00
2023-02-09T12:48:11.734Z,6.50
2023-02-09T12:50:44.289Z,5.30
2023-02-09T12:53:28.453Z,5.80
2023-02-09T12:56:28.285Z,5.20
2023-02-09T12:59:14.445Z,8.40
2023-02-09T13:02:08.230Z,6.80
2023-02-09T13:04:52.125Z,7.70
2023-02-09T13:07:34.194Z,7.60
2023-02-09T13:10:36.302Z,8.10
2023-02-09T13:16:29.860Z,8.30
2023-02-09T13:19:48.026Z,7.40
2023-02-09T13:22:39.819Z,6.90
2023-02-09T13:25:34.916Z,12.20
2023-02-09T13:28:17.238Z,9.30
2023-02-09T13:30:47.322Z,8.10
2023-02-09T13:34:07.336Z,9.10
2023-02-09T13:36:47.408Z,7.40
2023-02-09T13:39:25.004Z,8.30
2023-02-09T13:41:54.794Z,8.80
2023-02-09T13:44:30.773Z,10.20
2023-02-09T13:47:07.160Z,9.20
2023-02-09T13:49:37.888Z,9.20
2023-02-09T13:52:33.491Z,11.60
2023-02-09T13:55:23.474Z,11.00
2023-02-09T13:58:18.137Z,10.50
2023-02-09T14:04:20.919Z,10.60
2023-02-09T14:07:01.857Z,11.40
2023-02-09T14:09:50.980Z,21.70
2023-02-09T14:12:55.637Z,38.60
2023-02-09T14:15:56.782Z,17.60
2023-02-09T14:18:29.329Z,11.70
2023-02-09T14:21:03.761Z,8.50
2023-02-09T14:23:35.250Z,14.20
2023-02-09T14:29:25.485Z,13.60
2023-02-09T14:31:57.965Z,13.80
2023-02-09T14:34:36.076Z,33.80
2023-02-09T14:37:23.077Z,35.00
2023-02-09T14:40:14.206Z,23.80
2023-02-09T14:43:26.138Z,19.30
2023-02-09T14:46:08.431Z,24.50
2023-02-09T14:48:37.552Z,19.80
2023-02-09T14:51:14.025Z,14.40
2023-02-09T14:53:43.711Z,18.00
2023-02-09T14:56:30.689Z,12.60
2023-02-09T14:59:05.566Z,18.00
2023-02-09T15:01:35.065Z,13.10
2023-02-09T15:04:03.784Z,15.50
2023-02-09T15:06:35.156Z,14.50
2023-02-09T15:09:23.356Z,11.00
2023-02-09T15:12:27.021Z,10.50
2023-02-09T15:14:58.795Z,11.30
2023-02-09T15:17:29.479Z,8.80
2023-02-09T15:19:58.047Z,12.50
2023-02-09T15:25:30.460Z,8.30
2023-02-09T15:28:00.649Z,8.90
2023-02-09T15:30:32.408Z,8.30
2023-02-09T15:33:03.933Z,6.60
2023-02-09T15:35:32.368Z,9.70
2023-02-09T15:38:01.349Z,9.10
2023-02-09T15:40:49.810Z,11.10
2023-02-09T15:43:38.578Z,9.40
2023-02-09T15:46:07.582Z,14.40
2023-02-09T15:48:37.067Z,15.40
2023-02-09T15:51:05.450Z,18.00
2023-02-09T15:53:34.541Z,15.00
2023-02-09T15:56:03.037Z,15.10
2023-02-09T15:58:36.086Z,17.80
2023-02-09T16:01:04.999Z,17.30
2023-02-09T16:03:33.591Z,16.60
2023-02-09T16:06:12.309Z,14.90
2023-02-09T16:08:40.382Z,12.40
2023-02-09T16:11:15.741Z,19.50
2023-02-09T16:13:51.698Z,20.30
2023-02-09T16:16:20.197Z,13.90
2023-02-09T16:18:48.530Z,18.60
2023-02-09T16:21:22.329Z,25.30
2023-02-09T16:23:52.252Z,27.90
2023-02-09T16:26:21.110Z,43.00
2023-02-09T16:31:57.329Z,26.60
2023-02-09T16:34:25.805Z,28.50
2023-02-09T16:36:53.998Z,26.80
2023-02-09T16:39:22.471Z,25.80
2023-02-09T16:41:51.029Z,22.40
2023-02-09T16:44:19.644Z,26.00
2023-02-09T16:46:50.188Z,22.80
2023-02-09T16:52:17.703Z,19.80
2023-02-09T16:54:48.766Z,30.00
2023-02-09T16:57:19.515Z,25.50
2023-02-09T16:59:47.893Z,30.30
2023-02-09T17:02:28.864Z,27.70
2023-02-09T17:05:20.761Z,25.20
2023-02-09T17:08:22.448Z,25.60
2023-02-09T17:10:52.046Z,31.60
2023-02-09T17:13:23.306Z,29.70
2023-02-09T17:18:42.542Z,30.10
2023-02-09T17:21:27.136Z,36.50
2023-02-09T17:23:55.383Z,37.90
2023-02-09T17:26:24.327Z,35.90
2023-02-09T17:28:52.891Z,27.10
2023-02-09T17:31:26.696Z,32.60
2023-02-09T17:34:00.034Z,40.20
2023-02-09T17:36:29.592Z,37.60
2023-02-09T17:38:59.193Z,30.50
2023-02-09T17:41:32.730Z,29.50
2023-02-09T17:44:24.309Z,26.20
2023-02-09T17:46:57.234Z,25.30
2023-02-09T17:49:28.447Z,27.70
2023-02-09T17:51:56.970Z,30.60
2023-02-09T17:54:25.505Z,29.10
2023-02-09T17:56:53.683Z,28.60
2023-02-09T17:59:21.817Z,35.60
2023-02-09T18:01:50.515Z,43.60
2023-02-09T18:04:39.703Z,51.90
2023-02-09T18:07:09.507Z,70.30
2023-02-09T18:09:37.650Z,78.20
2023-02-09T18:15:29.466Z,76.50
2023-02-09T18:17:57.914Z,73.00
2023-02-09T18:20:33.456Z,57.90
2023-02-09T18:23:02.864Z,55.10
2023-02-09T18:25:49.873Z,62.00
2023-02-09T18:28:18.522Z,67.70
2023-02-09T18:30:46.788Z,86.40
2023-02-09T18:33:15.114Z,81.10
2023-02-09T18:35:44.758Z,77.70
2023-02-09T18:38:14.090Z,65.50
2023-02-09T18:43:31.387Z,60.90
2023-02-09T18:46:01.221Z,76.40
2023-02-09T18:51:33.885Z,64.70
2023-02-09T18:54:04.600Z,83.00
2023-02-09T19:04:36.154Z,52.70
2023-02-09T19:07:06.445Z,63.40
2023-02-09T19:09:36.444Z,92.00
2023-02-09T19:12:08.308Z,111.80
2023-02-09T19:14:56.754Z,72.60
2023-02-09T19:17:25.038Z,70.20
2023-02-09T19:19:57.199Z,68.60
2023-02-09T19:22:25.547Z,62.10
2023-02-09T19:24:55.829Z,67.20
2023-02-09T19:27:26.251Z,63.00
2023-02-09T19:29:55.831Z,59.90
2023-02-09T19:32:24.924Z,71.30
2023-02-09T19:34:53.713Z,60.00
2023-02-09T19:37:22.738Z,58.20
2023-02-09T19:40:00.503Z,55.60
2023-02-09T19:42:45.998Z,52.50
2023-02-09T19:45:15.185Z,45.20
2023-02-09T19:47:44.069Z,41.60
2023-02-09T19:50:12.350Z,41.10
2023-02-09T19:55:29.900Z,53.40
2023-02-09T19:57:58.120Z,47.50
2023-02-09T20:00:26.375Z,44.90
2023-02-09T20:02:54.722Z,50.80
2023-02-09T20:05:23.622Z,41.80
2023-02-09T20:07:54.558Z,50.00
2023-02-09T20:10:24.062Z,40.70
2023-02-09T20:12:52.152Z,43.30
2023-02-09T20:15:24.081Z,31.70
2023-02-09T20:17:52.564Z,29.10
2023-02-09T20:20:20.842Z,30.30
2023-02-09T20:22:50.549Z,31.80
2023-02-09T20:25:19.041Z,43.40
2023-02-09T20:27:48.862Z,62.40
2023-02-09T20:30:17.320Z,59.90
2023-02-09T20:35:49.096Z,55.10
2023-02-09T20:38:17.496Z,27.80
2023-02-09T20:40:46.435Z,23.30
2023-02-09T20:43:51.099Z,20.40
2023-02-09T20:46:42.329Z,21.80
2023-02-09T20:49:12.619Z,23.60
2023-02-09T20:51:41.113Z,19.30
2023-02-09T20:54:09.471Z,18.20
2023-02-09T20:56:39.611Z,16.00
2023-02-09T20:59:08.088Z,13.20
2023-02-09T21:01:38.416Z,17.60
2023-02-09T21:04:07.631Z,18.20
2023-02-09T21:06:37.441Z,15.90
2023-02-09T21:09:06.372Z,14.50
2023-02-09T21:11:34.866Z,14.10
2023-02-09T21:14:03.075Z,14.60
2023-02-09T21:16:31.442Z,12.50
2023-02-09T21:19:00.127Z,12.70
2023-02-09T21:21:46.121Z,12.00
2023-02-09T21:24:14.450Z,14.10
2023-02-09T21:26:43.100Z,10.60
2023-02-09T21:29:12.869Z,11.30
2023-02-09T21:31:41.558Z,11.20
2023-02-09T21:34:20.109Z,10.90
2023-02-09T21:36:48.790Z,9.90
2023-02-09T21:39:17.162Z,11.70
2023-02-09T21:42:04.028Z,11.50
2023-02-09T21:44:32.857Z,11.40
2023-02-09T21:47:01.337Z,10.80
2023-02-09T21:49:31.908Z,12.90
2023-02-09T21:52:00.454Z,15.30
2023-02-09T21:54:33.275Z,14.40
2023-02-09T21:57:19.126Z,18.20
2023-02-09T21:59:47.737Z,16.10
2023-02-09T22:02:19.396Z,14.20
2023-02-09T22:04:47.913Z,18.50
2023-02-09T22:07:16.334Z,20.60
2023-02-09T22:09:45.213Z,21.50
2023-02-09T22:12:13.727Z,20.80
2023-02-09T22:14:41.960Z,22.20
2023-02-09T22:17:10.336Z,29.00
2023-02-09T22:19:38.622Z,28.70
2023-02-09T22:22:07.091Z,25.80
2023-02-09T22:24:36.051Z,24.10
2023-02-09T22:27:04.767Z,19.50
2023-02-09T22:29:34.563Z,25.50
2023-02-09T22:32:02.885Z,26.50
2023-02-09T22:34:31.241Z,21.20
2023-02-09T22:37:17.124Z,21.80
2023-02-09T22:42:32.925Z,22.50
2023-02-09T22:45:01.139Z,20.90
2023-02-09T22:47:29.681Z,26.40
2023-02-09T22:52:47.624Z,16.60
2023-02-09T22:55:15.892Z,20.00
2023-02-09T22:57:47.882Z,18.60
2023-02-09T23:00:17.080Z,20.50
2023-02-09T23:02:45.470Z,17.50
2023-02-09T23:05:13.621Z,15.20
2023-02-09T23:07:45.495Z,16.00
2023-02-09T23:10:13.976Z,16.50
2023-02-09T23:12:42.761Z,19.20
2023-02-09T23:17:57.900Z,16.00
2023-02-09T23:20:26.086Z,16.60
2023-02-09T23:22:56.435Z,17.80
2023-02-09T23:25:24.941Z,14.20
2023-02-09T23:27:53.227Z,12.00
2023-02-09T23:30:21.615Z,11.00
2023-02-09T23:32:54.378Z,12.40
2023-02-09T23:35:24.384Z,13.30
2023-02-09T23:37:52.700Z,11.50
2023-02-09T23:40:20.956Z,12.70
2023-02-09T23:42:53.217Z,14.10
2023-02-09T23:45:21.384Z,10.70
2023-02-09T23:47:49.754Z,12.60
2023-02-09T23:50:18.639Z,10.10
2023-02-09T23:52:47.015Z,12.10
2023-02-09T23:55:18.267Z,10.50
2023-02-09T23:57:48.284Z,12.30
